createdAt,value
2022-12-18T00:02:16.995Z,40.63
2022-12-18T00:04:44.034Z,36.20
2022-12-18T00:07:10.988Z,42.58
2022-12-18T00:09:40.261Z,40.33
2022-12-18T00:14:43.358Z,36.85
2022-12-18T00:17:10.328Z,39.15
2022-12-18T00:19:37.182Z,38.83
2022-12-18T00:22:04.116Z,26.75
2022-12-18T00:24:31.007Z,33.13
2022-12-18T00:26:57.858Z,25.27
2022-12-18T00:29:24.983Z,33.92
2022-12-18T00:31:51.905Z,31.52
2022-12-18T00:34:18.838Z,28.08
2022-12-18T00:36:48.316Z,28.35
2022-12-18T00:39:15.180Z,31.90
2022-12-18T00:42:00.617Z,32.88
2022-12-18T00:44:27.454Z,29.42
2022-12-18T00:46:54.306Z,30.05
2022-12-18T00:49:21.976Z,20.10
2022-12-18T00:51:49.782Z,27.25
2022-12-18T00:54:17.823Z,33.50
2022-12-18T00:56:49.429Z,32.85
2022-12-18T00:59:17.758Z,30.53
2022-12-18T01:01:45.028Z,29.42
2022-12-18T01:04:11.992Z,30.25
2022-12-18T01:06:38.839Z,27.98
2022-12-18T01:09:07.442Z,25.58
2022-12-18T01:11:34.370Z,26.15
2022-12-18T01:14:01.712Z,28.13
2022-12-18T01:16:28.655Z,23.40
2022-12-18T01:18:55.929Z,25.05
2022-12-18T01:21:24.174Z,25.35
2022-12-18T01:23:56.131Z,19.42
2022-12-18T01:26:23.462Z,28.30
2022-12-18T01:28:50.476Z,26.90
2022-12-18T01:31:19.698Z,26.58
2022-12-18T01:33:52.157Z,25.73
2022-12-18T01:36:28.659Z,24.73
2022-12-18T01:38:56.325Z,22.58
2022-12-18T01:41:26.214Z,21.63
2022-12-18T01:43:54.849Z,25.95
2022-12-18T01:46:23.563Z,21.73
2022-12-18T01:48:57.472Z,22.50
2022-12-18T01:51:26.721Z,25.42
2022-12-18T01:53:53.574Z,25.88
2022-12-18T01:56:22.144Z,27.42
2022-12-18T01:59:03.764Z,25.10
2022-12-18T02:01:33.000Z,27.67
2022-12-18T02:04:32.267Z,24.20
2022-12-18T02:07:08.218Z,26.13
2022-12-18T02:09:42.612Z,25.10
2022-12-18T02:12:20.551Z,24.88
2022-12-18T02:15:10.871Z,26.38
2022-12-18T02:18:01.335Z,23.40
2022-12-18T02:20:36.164Z,25.13
2022-12-18T02:23:29.655Z,24.85
2022-12-18T02:26:08.579Z,22.20
2022-12-18T02:28:42.565Z,24.55
2022-12-18T02:31:14.973Z,24.00
2022-12-18T02:33:43.329Z,22.55
2022-12-18T02:36:11.953Z,23.17
2022-12-18T02:38:39.973Z,24.02
2022-12-18T02:41:07.603Z,23.58
2022-12-18T02:43:34.516Z,22.63
2022-12-18T02:46:22.896Z,25.13
2022-12-18T02:48:51.614Z,21.23
2022-12-18T02:51:23.898Z,23.05
2022-12-18T02:54:01.404Z,23.20
2022-12-18T02:56:50.340Z,23.45
2022-12-18T02:59:29.711Z,24.45
2022-12-18T03:02:04.391Z,22.80
2022-12-18T03:04:42.472Z,23.02
2022-12-18T03:07:16.477Z,24.80
2022-12-18T03:09:47.638Z,24.75
2022-12-18T03:12:28.806Z,24.98
2022-12-18T03:15:18.175Z,25.23
2022-12-18T03:17:52.175Z,20.50
2022-12-18T03:20:22.765Z,26.20
2022-12-18T03:23:00.892Z,25.42
2022-12-18T03:25:29.148Z,24.80
2022-12-18T03:27:59.849Z,25.90
2022-12-18T03:30:29.629Z,26.27
2022-12-18T03:33:10.150Z,24.13
2022-12-18T03:35:40.873Z,22.67
2022-12-18T03:38:08.802Z,25.15
2022-12-18T03:40:44.274Z,23.50
2022-12-18T03:43:21.500Z,24.58
2022-12-18T03:45:55.371Z,22.73
2022-12-18T03:48:33.830Z,21.90
2022-12-18T03:51:09.064Z,23.50
2022-12-18T03:53:50.978Z,26.15
2022-12-18T03:56:19.985Z,27.52
2022-12-18T03:58:49.003Z,24.52
2022-12-18T04:01:18.484Z,28.00
2022-12-18T04:03:49.272Z,30.45
2022-12-18T04:06:17.435Z,28.88
2022-12-18T04:08:45.227Z,29.77
2022-12-18T04:11:12.596Z,23.95
2022-12-18T04:13:40.186Z,31.73
2022-12-18T04:16:07.545Z,33.00
2022-12-18T04:18:35.207Z,31.67
2022-12-18T04:21:02.299Z,31.40
2022-12-18T04:23:29.421Z,30.70
2022-12-18T04:25:56.351Z,30.50
2022-12-18T04:28:23.206Z,29.80
2022-12-18T04:30:50.214Z,29.75
2022-12-18T04:33:17.231Z,30.58
2022-12-18T04:35:44.491Z,27.73
2022-12-18T04:38:11.502Z,26.35
2022-12-18T04:40:39.285Z,26.00
2022-12-18T04:43:08.170Z,23.15
2022-12-18T04:45:35.268Z,24.27
2022-12-18T04:48:03.542Z,21.17
2022-12-18T04:50:31.020Z,18.92
2022-12-18T04:52:58.134Z,22.83
2022-12-18T04:55:26.626Z,21.58
2022-12-18T04:57:54.007Z,21.70
2022-12-18T05:00:21.860Z,21.25
2022-12-18T05:02:49.210Z,21.27
2022-12-18T05:05:16.232Z,22.67
2022-12-18T05:07:43.085Z,22.00
2022-12-18T05:10:10.758Z,21.42
2022-12-18T05:12:57.639Z,19.88
2022-12-18T05:15:25.111Z,21.98
2022-12-18T05:17:51.966Z,20.55
2022-12-18T05:20:19.317Z,18.90
2022-12-18T05:22:46.276Z,20.58
2022-12-18T05:25:13.196Z,20.15
2022-12-18T05:27:40.104Z,18.88
2022-12-18T05:30:07.614Z,17.95
2022-12-18T05:32:34.488Z,19.40
2022-12-18T05:35:01.358Z,18.90
2022-12-18T05:37:28.319Z,20.42
2022-12-18T05:39:55.499Z,21.67
2022-12-18T05:42:22.373Z,19.02
2022-12-18T05:44:49.313Z,20.30
2022-12-18T05:47:16.169Z,18.73
2022-12-18T05:49:43.143Z,20.77
2022-12-18T05:52:10.659Z,19.83
2022-12-18T05:54:37.514Z,21.30
2022-12-18T05:57:04.423Z,19.02
2022-12-18T05:59:31.395Z,19.05
2022-12-18T06:01:58.304Z,17.05
2022-12-18T06:04:27.325Z,17.70
2022-12-18T06:06:54.207Z,18.17
2022-12-18T06:09:21.263Z,17.67
2022-12-18T06:11:48.065Z,19.05
2022-12-18T06:14:15.357Z,19.67
2022-12-18T06:16:42.219Z,18.50
2022-12-18T06:19:09.083Z,19.05
2022-12-18T06:21:36.184Z,19.60
2022-12-18T06:24:03.249Z,20.70
2022-12-18T06:26:30.106Z,21.25
2022-12-18T06:28:57.337Z,21.10
2022-12-18T06:31:25.171Z,21.00
2022-12-18T06:33:52.549Z,20.15
2022-12-18T06:36:19.516Z,20.17
2022-12-18T06:38:46.433Z,21.92
2022-12-18T06:41:22.164Z,22.20
2022-12-18T06:43:49.128Z,22.45
2022-12-18T06:46:16.014Z,25.10
2022-12-18T06:48:42.995Z,26.08
2022-12-18T06:51:09.900Z,24.98
2022-12-18T06:53:36.976Z,24.35
2022-12-18T06:56:10.635Z,25.20
2022-12-18T06:58:39.218Z,22.23
2022-12-18T07:01:09.129Z,23.30
2022-12-18T07:03:36.268Z,22.70
2022-12-18T07:06:03.377Z,22.73
2022-12-18T07:08:31.342Z,23.48
2022-12-18T07:10:58.382Z,22.88
2022-12-18T07:13:25.470Z,22.58
2022-12-18T07:15:52.677Z,22.88
2022-12-18T07:18:19.519Z,22.08
2022-12-18T07:20:46.394Z,22.55
2022-12-18T07:23:15.068Z,22.35
2022-12-18T07:25:41.998Z,23.25
2022-12-18T07:28:12.789Z,22.90
2022-12-18T07:30:42.602Z,23.50
2022-12-18T07:33:09.564Z,22.92
2022-12-18T07:35:36.557Z,24.40
2022-12-18T07:38:03.458Z,22.55
2022-12-18T07:40:30.322Z,23.73
2022-12-18T07:42:57.253Z,26.52
2022-12-18T07:45:24.156Z,26.98
2022-12-18T07:47:51.002Z,22.92
2022-12-18T07:50:17.873Z,21.70
2022-12-18T07:52:44.749Z,23.35
2022-12-18T07:55:11.627Z,23.75
2022-12-18T07:57:57.766Z,23.25
2022-12-18T08:00:25.454Z,23.23
2022-12-18T08:02:52.525Z,23.42
2022-12-18T08:05:19.841Z,22.20
2022-12-18T08:07:46.791Z,23.10
2022-12-18T08:10:14.361Z,22.98
2022-12-18T08:12:41.282Z,24.60
2022-12-18T08:15:08.696Z,24.92
2022-12-18T08:17:35.614Z,22.42
2022-12-18T08:20:02.596Z,23.27
2022-12-18T08:22:29.578Z,22.98
2022-12-18T08:24:56.416Z,22.73
2022-12-18T08:27:30.640Z,22.45
2022-12-18T08:29:58.455Z,23.45
2022-12-18T08:32:26.986Z,22.20
2022-12-18T08:34:53.885Z,21.17
2022-12-18T08:37:21.058Z,22.25
2022-12-18T08:39:48.052Z,22.13
2022-12-18T08:42:33.565Z,21.55
2022-12-18T08:45:00.632Z,22.85
2022-12-18T08:47:27.584Z,23.13
2022-12-18T08:49:54.483Z,32.33
2022-12-18T08:52:21.338Z,23.70
2022-12-18T08:54:48.179Z,21.75
2022-12-18T08:57:15.047Z,21.88
2022-12-18T08:59:41.884Z,24.05
2022-12-18T09:02:12.068Z,22.88
2022-12-18T09:04:40.957Z,23.20
2022-12-18T09:07:07.888Z,21.48
2022-12-18T09:09:34.770Z,22.73
2022-12-18T09:12:01.685Z,21.88
2022-12-18T09:14:28.532Z,23.20
2022-12-18T09:16:55.942Z,24.67
2022-12-18T09:19:23.117Z,23.88
2022-12-18T09:21:49.974Z,24.58
2022-12-18T09:24:17.317Z,23.00
2022-12-18T09:26:46.823Z,21.92
2022-12-18T09:29:15.577Z,23.65
2022-12-18T09:31:43.381Z,21.60
2022-12-18T09:34:10.576Z,22.92
2022-12-18T09:36:37.469Z,25.67
2022-12-18T09:39:08.105Z,24.33
2022-12-18T09:41:51.855Z,23.40
2022-12-18T09:44:28.131Z,22.75
2022-12-18T09:47:07.317Z,22.58
2022-12-18T09:49:40.487Z,22.63
2022-12-18T09:52:13.385Z,21.95
2022-12-18T09:57:11.806Z,22.45
2022-12-18T09:59:40.920Z,26.50
2022-12-18T10:02:23.904Z,20.08
2022-12-18T10:08:00.588Z,20.73
2022-12-18T10:10:36.868Z,20.92
2022-12-18T10:13:08.876Z,21.48
2022-12-18T10:16:03.697Z,17.37
2022-12-18T10:18:46.770Z,20.13
2022-12-18T10:21:20.275Z,20.15
2022-12-18T10:24:02.691Z,19.30
2022-12-18T10:26:29.597Z,20.23
2022-12-18T10:29:05.167Z,23.98
2022-12-18T10:31:32.642Z,21.83
2022-12-18T10:33:59.557Z,21.13
2022-12-18T10:36:26.581Z,21.65
2022-12-18T10:38:53.929Z,20.88
2022-12-18T10:41:23.099Z,20.73
2022-12-18T10:44:09.922Z,21.17
2022-12-18T10:46:37.275Z,20.00
2022-12-18T10:49:05.900Z,18.25
2022-12-18T10:51:38.474Z,16.90
2022-12-18T10:54:26.198Z,18.88
2022-12-18T10:57:13.028Z,19.63
2022-12-18T10:59:55.834Z,24.55
2022-12-18T11:02:41.021Z,18.63
2022-12-18T11:05:34.488Z,17.83
2022-12-18T11:10:34.575Z,17.23
2022-12-18T11:13:11.772Z,17.85
2022-12-18T11:15:42.251Z,16.77
2022-12-18T11:18:20.343Z,17.48
2022-12-18T11:21:06.381Z,17.38
2022-12-18T11:23:33.378Z,17.45
2022-12-18T11:26:03.606Z,18.10
2022-12-18T11:28:44.872Z,18.13
2022-12-18T11:31:28.599Z,16.75
2022-12-18T11:34:26.826Z,17.73
2022-12-18T11:36:49.534Z,16.02
2022-12-18T11:39:42.253Z,15.05
2022-12-18T11:42:12.445Z,15.35
2022-12-18T11:44:52.271Z,14.68
2022-12-18T11:47:43.916Z,29.40
2022-12-18T11:50:45.436Z,15.15
2022-12-18T11:53:13.488Z,14.65
2022-12-18T11:56:03.004Z,15.25
2022-12-18T11:58:43.183Z,13.90
2022-12-18T12:01:17.663Z,16.30
2022-12-18T12:04:13.439Z,15.18
2022-12-18T12:07:04.611Z,14.95
2022-12-18T12:10:03.513Z,15.13
2022-12-18T12:12:49.112Z,14.43
2022-12-18T12:15:37.359Z,15.60
2022-12-18T12:18:20.303Z,14.90
2022-12-18T12:20:59.399Z,15.15
2022-12-18T12:23:35.295Z,15.40
2022-12-18T12:26:08.423Z,16.85
2022-12-18T12:28:44.200Z,16.70
2022-12-18T12:31:36.021Z,16.02
2022-12-18T12:34:14.982Z,16.10
2022-12-18T12:36:54.150Z,15.60
2022-12-18T12:39:28.296Z,18.05
2022-12-18T12:42:14.503Z,16.23
2022-12-18T12:44:52.632Z,16.67
2022-12-18T12:47:31.607Z,17.45
2022-12-18T12:50:01.545Z,17.02
2022-12-18T12:52:30.021Z,15.95
2022-12-18T12:54:58.372Z,16.38
2022-12-18T12:57:25.408Z,16.92
2022-12-18T13:00:12.816Z,17.08
2022-12-18T13:03:20.147Z,15.95
2022-12-18T13:05:50.075Z,15.73
2022-12-18T13:08:31.217Z,16.73
2022-12-18T13:11:20.802Z,16.35
2022-12-18T13:13:54.305Z,16.50
2022-12-18T13:16:26.665Z,16.88
2022-12-18T13:19:00.002Z,17.85
2022-12-18T13:21:33.541Z,17.77
2022-12-18T13:24:36.719Z,19.00
2022-12-18T13:27:52.544Z,16.48
2022-12-18T13:30:34.438Z,17.20
2022-12-18T13:33:19.522Z,17.25
2022-12-18T13:35:49.157Z,16.42
2022-12-18T13:38:39.001Z,17.33
2022-12-18T13:41:24.125Z,17.67
2022-12-18T13:43:53.873Z,17.55
2022-12-18T13:46:31.733Z,18.05
2022-12-18T13:49:01.391Z,19.40
2022-12-18T13:51:30.837Z,18.23
2022-12-18T13:54:18.907Z,18.20
2022-12-18T13:56:47.757Z,18.00
2022-12-18T13:59:25.737Z,17.27
2022-12-18T14:02:02.906Z,18.15
2022-12-18T14:04:35.811Z,18.30
2022-12-18T14:07:14.977Z,18.02
2022-12-18T14:09:47.356Z,18.92
2022-12-18T14:12:44.813Z,18.33
2022-12-18T14:15:24.816Z,16.75
2022-12-18T14:17:54.706Z,19.05
2022-12-18T14:20:21.952Z,18.77
2022-12-18T14:22:50.124Z,18.05
2022-12-18T14:25:19.798Z,18.98
2022-12-18T14:28:11.224Z,17.60
2022-12-18T14:30:43.496Z,17.15
2022-12-18T14:33:18.905Z,16.63
2022-12-18T14:36:04.108Z,16.75
2022-12-18T14:38:39.324Z,17.83
2022-12-18T14:41:12.667Z,15.82
2022-12-18T14:43:42.141Z,15.50
2022-12-18T14:46:28.030Z,16.45
2022-12-18T14:48:55.159Z,15.32
2022-12-18T14:51:27.660Z,15.13
2022-12-18T14:54:16.009Z,16.42
2022-12-18T14:56:49.093Z,14.93
2022-12-18T14:59:24.753Z,15.10
2022-12-18T15:02:22.792Z,15.35
2022-12-18T15:05:12.770Z,14.85
2022-12-18T15:07:54.586Z,16.02
2022-12-18T15:10:24.437Z,15.48
2022-12-18T15:12:57.394Z,15.20
2022-12-18T15:18:08.980Z,14.05
2022-12-18T15:20:50.480Z,13.18
2022-12-18T15:23:21.804Z,15.20
2022-12-18T15:25:56.513Z,14.70
2022-12-18T15:28:31.881Z,15.07
2022-12-18T15:31:13.221Z,15.57
2022-12-18T15:33:45.184Z,15.50
2022-12-18T15:36:14.146Z,14.60
2022-12-18T15:38:41.265Z,16.63
2022-12-18T15:41:16.846Z,14.38
2022-12-18T15:43:47.514Z,13.98
2022-12-18T15:46:20.261Z,14.40
2022-12-18T15:48:57.975Z,14.00
2022-12-18T15:51:32.468Z,14.85
2022-12-18T15:54:01.891Z,15.30
2022-12-18T15:56:47.793Z,14.90
2022-12-18T15:59:19.871Z,14.93
2022-12-18T16:01:49.110Z,16.05
2022-12-18T16:04:18.668Z,16.75
2022-12-18T16:07:13.203Z,16.83
2022-12-18T16:09:32.376Z,18.42
2022-12-18T16:11:59.701Z,20.40
2022-12-18T16:14:28.591Z,17.90
2022-12-18T16:17:00.887Z,17.33
2022-12-18T16:19:28.660Z,17.83
2022-12-18T16:21:57.733Z,17.38
2022-12-18T16:24:30.215Z,18.40
2022-12-18T16:27:00.205Z,21.52
2022-12-18T16:29:28.677Z,17.67
2022-12-18T16:32:00.359Z,20.13
2022-12-18T16:34:35.435Z,22.95
2022-12-18T16:37:06.392Z,26.27
2022-12-18T16:39:35.345Z,22.83
2022-12-18T16:42:05.963Z,29.17
2022-12-18T16:44:34.591Z,27.85
2022-12-18T16:47:03.170Z,30.75
2022-12-18T16:49:30.689Z,42.65
2022-12-18T16:51:57.873Z,24.73
2022-12-18T16:54:25.063Z,29.35
2022-12-18T16:56:52.474Z,34.25
2022-12-18T16:59:20.032Z,36.97
2022-12-18T17:01:47.763Z,32.60
2022-12-18T17:04:15.328Z,30.58
2022-12-18T17:06:45.194Z,24.35
2022-12-18T17:09:18.409Z,24.15
2022-12-18T17:11:45.351Z,24.75
2022-12-18T17:14:16.175Z,22.55
2022-12-18T17:16:43.159Z,23.33
2022-12-18T17:19:16.641Z,21.48
2022-12-18T17:21:45.794Z,23.40
2022-12-18T17:24:12.682Z,22.73
2022-12-18T17:26:39.814Z,21.58
2022-12-18T17:29:07.411Z,18.17
2022-12-18T17:31:35.093Z,23.13
2022-12-18T17:34:04.344Z,19.63
2022-12-18T17:36:32.407Z,19.98
2022-12-18T17:39:01.321Z,19.40
2022-12-18T17:41:29.118Z,21.05
2022-12-18T17:44:03.863Z,20.27
2022-12-18T17:46:33.038Z,20.70
2022-12-18T17:49:02.540Z,19.92
2022-12-18T17:51:30.192Z,18.55
2022-12-18T17:53:57.284Z,18.92
2022-12-18T17:56:25.035Z,17.77
2022-12-18T17:58:52.610Z,17.98
2022-12-18T18:01:23.202Z,65.63
2022-12-18T18:03:52.968Z,24.33
2022-12-18T18:06:21.019Z,20.50
2022-12-18T18:08:48.460Z,20.75
2022-12-18T18:11:36.900Z,20.40
2022-12-18T18:14:07.013Z,18.70
2022-12-18T18:16:43.949Z,20.77
2022-12-18T18:19:17.364Z,21.80
2022-12-18T18:21:46.600Z,21.45
2022-12-18T18:24:16.410Z,15.75
2022-12-18T18:26:43.362Z,15.93
2022-12-18T18:29:14.682Z,18.05
2022-12-18T18:31:42.092Z,19.00
2022-12-18T18:34:18.191Z,19.33
2022-12-18T18:36:46.319Z,11.77
2022-12-18T18:39:14.901Z,17.05
2022-12-18T18:41:42.199Z,17.35
2022-12-18T18:46:41.732Z,11.48
2022-12-18T18:49:08.765Z,19.58
2022-12-18T18:51:35.832Z,15.25
2022-12-18T18:54:03.054Z,18.92
2022-12-18T18:59:18.609Z,17.00
2022-12-18T19:01:45.703Z,15.73
2022-12-18T19:04:12.970Z,15.85
2022-12-18T19:06:40.278Z,16.83
2022-12-18T19:09:08.503Z,17.20
2022-12-18T19:12:04.848Z,16.17
2022-12-18T19:14:31.947Z,19.63
2022-12-18T19:16:58.795Z,14.80
2022-12-18T19:19:27.157Z,16.88
2022-12-18T19:21:54.092Z,17.00
2022-12-18T19:24:22.544Z,40.03
2022-12-18T19:26:49.545Z,15.25
2022-12-18T19:29:16.434Z,14.88
2022-12-18T19:31:43.416Z,15.82
2022-12-18T19:34:10.517Z,16.05
2022-12-18T19:36:39.918Z,15.85
2022-12-18T19:39:18.080Z,16.42
2022-12-18T19:41:47.022Z,15.35
2022-12-18T19:44:16.127Z,19.45
2022-12-18T19:46:44.312Z,8.70
2022-12-18T19:49:17.370Z,15.35
2022-12-18T19:51:44.903Z,16.65
2022-12-18T19:54:16.419Z,9.60
2022-12-18T19:56:43.910Z,15.23
2022-12-18T19:59:10.845Z,13.32
2022-12-18T20:01:37.830Z,14.90
2022-12-18T20:04:05.680Z,15.18
2022-12-18T20:06:36.240Z,15.13
2022-12-18T20:09:06.280Z,15.80
2022-12-18T20:11:35.361Z,15.35
2022-12-18T20:14:08.984Z,8.30
2022-12-18T20:16:36.026Z,13.75
2022-12-18T20:19:04.550Z,13.73
2022-12-18T20:21:31.903Z,13.85
2022-12-18T20:24:00.221Z,13.27
2022-12-18T20:26:27.641Z,10.98
2022-12-18T20:28:55.488Z,13.13
2022-12-18T20:31:23.023Z,12.40
2022-12-18T20:33:52.063Z,12.40
2022-12-18T20:36:24.502Z,6.35
2022-12-18T20:38:57.233Z,13.25
2022-12-18T20:41:27.695Z,12.50
2022-12-18T20:44:08.509Z,12.57
2022-12-18T20:46:50.483Z,10.07
2022-12-18T20:49:17.450Z,13.88
2022-12-18T20:51:44.336Z,11.43
2022-12-18T20:54:12.057Z,13.18
2022-12-18T20:56:39.058Z,12.73
2022-12-18T20:59:05.952Z,13.93
2022-12-18T21:01:33.088Z,13.82
2022-12-18T21:04:00.777Z,13.05
2022-12-18T21:06:28.865Z,6.85
2022-12-18T21:08:55.831Z,11.65
2022-12-18T21:11:41.340Z,12.02
2022-12-18T21:14:20.029Z,13.57
2022-12-18T21:16:47.793Z,9.18
2022-12-18T21:19:19.551Z,14.77
2022-12-18T21:21:47.444Z,14.60
2022-12-18T21:24:14.613Z,13.30
2022-12-18T21:26:46.131Z,13.63
2022-12-18T21:29:19.157Z,9.50
2022-12-18T21:34:19.587Z,6.50
2022-12-18T21:36:47.411Z,11.43
2022-12-18T21:39:15.490Z,10.68
2022-12-18T21:42:01.155Z,14.43
2022-12-18T21:44:28.320Z,14.00
2022-12-18T21:47:01.551Z,12.32
2022-12-18T21:49:33.580Z,15.63
2022-12-18T21:52:01.202Z,12.32
2022-12-18T21:54:29.107Z,13.52
2022-12-18T21:57:04.516Z,14.50
2022-12-18T21:59:34.726Z,76.97
2022-12-18T22:02:04.953Z,14.93
2022-12-18T22:04:31.947Z,11.32
2022-12-18T22:07:00.925Z,16.25
2022-12-18T22:09:28.170Z,16.17
2022-12-18T22:11:55.055Z,17.63
2022-12-18T22:14:23.192Z,9.90
2022-12-18T22:16:54.026Z,7.10
2022-12-18T22:19:21.625Z,14.48
2022-12-18T22:21:49.632Z,17.83
2022-12-18T22:24:17.782Z,17.52
2022-12-18T22:26:46.636Z,14.93
2022-12-18T22:29:40.595Z,9.77
2022-12-18T22:32:10.794Z,12.63
2022-12-18T22:34:39.547Z,8.33
2022-12-18T22:37:06.810Z,12.50
2022-12-18T22:39:33.785Z,13.65
2022-12-18T22:42:00.644Z,18.23
2022-12-18T22:44:28.399Z,16.08
2022-12-18T22:47:06.911Z,16.50
2022-12-18T22:49:35.606Z,15.65
2022-12-18T22:52:03.905Z,21.23
2022-12-18T22:54:31.091Z,18.45
2022-12-18T22:56:58.172Z,15.50
2022-12-18T22:59:25.131Z,17.40
2022-12-18T23:01:57.077Z,16.40
2022-12-18T23:04:35.924Z,15.27
2022-12-18T23:07:06.557Z,16.15
2022-12-18T23:09:33.980Z,16.58
2022-12-18T23:12:01.267Z,16.90
2022-12-18T23:14:29.152Z,17.27
2022-12-18T23:16:56.453Z,16.05
2022-12-18T23:19:24.034Z,15.75
2022-12-18T23:21:51.835Z,14.63
2022-12-18T23:24:21.384Z,18.38
2022-12-18T23:26:48.265Z,18.13
2022-12-18T23:29:15.143Z,20.73
2022-12-18T23:31:42.209Z,19.60
2022-12-18T23:34:13.104Z,15.32
2022-12-18T23:36:45.503Z,20.98
2022-12-18T23:39:15.637Z,19.65
2022-12-18T23:41:58.236Z,18.90
2022-12-18T23:44:25.308Z,20.00
2022-12-18T23:46:52.878Z,17.42
2022-12-18T23:49:19.901Z,20.33
2022-12-18T23:51:46.821Z,20.50
2022-12-18T23:54:13.682Z,22.30
2022-12-18T23:56:40.915Z,19.40
2022-12-18T23:59:08.012Z,21.05
